sensor_id;sensor_type;location;lat;lon;timestamp;pressure;altitude;pressure_sealevel;temperature;humidity
45071;BME280;30836;48.906;9.140;2023-07-20T00:00:01;984.42;;;25.73;34.82
45071;BME280;30836;48.906;9.140;2023-07-20T00:01:01;984.42;;;25.57;34.80
45071;BME280;30836;48.906;9.140;2023-07-20T00:02:02;984.38;;;25.51;34.76
45071;BME280;30836;48.906;9.140;2023-07-20T00:04:13;984.40;;;25.43;34.96
45071;BME280;30836;48.906;9.140;2023-07-20T00:05:14;984.44;;;25.33;35.05
45071;BME280;30836;48.906;9.140;2023-07-20T00:06:14;984.44;;;25.25;35.04
45071;BME280;30836;48.906;9.140;2023-07-20T00:07:15;984.44;;;25.21;34.98
45071;BME280;30836;48.906;9.140;2023-07-20T00:08:16;984.44;;;25.20;34.95
45071;BME280;30836;48.906;9.140;2023-07-20T00:09:17;984.48;;;25.18;34.99
45071;BME280;30836;48.906;9.140;2023-07-20T00:10:17;984.48;;;25.14;34.91
45071;BME280;30836;48.906;9.140;2023-07-20T00:11:18;984.54;;;25.14;34.81
45071;BME280;30836;48.906;9.140;2023-07-20T00:12:18;984.48;;;25.14;34.87
45071;BME280;30836;48.906;9.140;2023-07-20T00:13:19;984.50;;;25.15;34.67
45071;BME280;30836;48.906;9.140;2023-07-20T00:14:19;984.52;;;25.22;34.53
45071;BME280;30836;48.906;9.140;2023-07-20T00:15:20;984.52;;;25.22;34.56
45071;BME280;30836;48.906;9.140;2023-07-20T00:16:21;984.54;;;25.20;34.56
45071;BME280;30836;48.906;9.140;2023-07-20T00:17:21;984.57;;;25.24;34.37
45071;BME280;30836;48.906;9.140;2023-07-20T00:18:21;984.54;;;25.31;34.29
45071;BME280;30836;48.906;9.140;2023-07-20T00:19:26;984.55;;;25.42;33.94
45071;BME280;30836;48.906;9.140;2023-07-20T00:20:27;984.55;;;25.59;33.67
45071;BME280;30836;48.906;9.140;2023-07-20T00:21:27;984.57;;;25.74;33.52
45071;BME280;30836;48.906;9.140;2023-07-20T00:22:28;984.54;;;25.85;33.42
45071;BME280;30836;48.906;9.140;2023-07-20T00:23:28;984.55;;;25.92;33.31
45071;BME280;30836;48.906;9.140;2023-07-20T00:24:29;984.55;;;25.97;33.32
45071;BME280;30836;48.906;9.140;2023-07-20T00:25:29;984.54;;;26.01;33.23
45071;BME280;30836;48.906;9.140;2023-07-20T00:26:29;984.57;;;26.08;33.15
45071;BME280;30836;48.906;9.140;2023-07-20T00:27:30;984.55;;;26.10;33.27
45071;BME280;30836;48.906;9.140;2023-07-20T00:28:30;984.57;;;26.11;33.20
45071;BME280;30836;48.906;9.140;2023-07-20T00:29:31;984.55;;;26.16;33.04
45071;BME280;30836;48.906;9.140;2023-07-20T00:30:31;984.59;;;26.27;32.78
45071;BME280;30836;48.906;9.140;2023-07-20T00:31:31;984.57;;;26.39;32.67
45071;BME280;30836;48.906;9.140;2023-07-20T00:32:32;984.55;;;26.50;32.56
45071;BME280;30836;48.906;9.140;2023-07-20T00:33:32;984.54;;;26.58;32.48
45071;BME280;30836;48.906;9.140;2023-07-20T00:34:33;984.52;;;26.64;32.37
45071;BME280;30836;48.906;9.140;2023-07-20T00:35:34;984.52;;;26.65;32.44
45071;BME280;30836;48.906;9.140;2023-07-20T00:36:34;984.52;;;26.61;32.61
45071;BME280;30836;48.906;9.140;2023-07-20T00:37:35;984.52;;;26.55;32.65
45071;BME280;30836;48.906;9.140;2023-07-20T00:38:35;984.52;;;26.50;32.73
45071;BME280;30836;48.906;9.140;2023-07-20T00:39:36;984.52;;;26.45;32.70
45071;BME280;30836;48.906;9.140;2023-07-20T00:40:36;984.52;;;26.44;32.63
45071;BME280;30836;48.906;9.140;2023-07-20T00:41:37;984.54;;;26.41;32.88
45071;BME280;30836;48.906;9.140;2023-07-20T00:42:38;984.50;;;26.32;33.06
45071;BME280;30836;48.906;9.140;2023-07-20T00:43:38;984.48;;;26.26;32.96
45071;BME280;30836;48.906;9.140;2023-07-20T00:44:39;984.48;;;26.28;32.85
45071;BME280;30836;48.906;9.140;2023-07-20T00:45:39;984.52;;;26.30;32.88
45071;BME280;30836;48.906;9.140;2023-07-20T00:46:40;984.50;;;26.31;32.90
45071;BME280;30836;48.906;9.140;2023-07-20T00:47:40;984.50;;;26.30;32.91
45071;BME280;30836;48.906;9.140;2023-07-20T00:47:50;984.50;;;26.20;32.93
45071;BME280;30836;48.906;9.140;2023-07-20T00:48:51;984.50;;;26.19;33.00
45071;BME280;30836;48.906;9.140;2023-07-20T00:49:52;984.48;;;26.13;33.29
45071;BME280;30836;48.906;9.140;2023-07-20T00:50:54;984.52;;;26.06;33.35
45071;BME280;30836;48.906;9.140;2023-07-20T00:51:54;984.50;;;26.05;33.21
45071;BME280;30836;48.906;9.140;2023-07-20T00:52:55;984.52;;;26.06;33.36
45071;BME280;30836;48.906;9.140;2023-07-20T00:53:06;984.57;;;25.96;33.38
45071;BME280;30836;48.906;9.140;2023-07-20T00:54:07;984.55;;;25.96;33.42
45071;BME280;30836;48.906;9.140;2023-07-20T00:55:08;984.54;;;25.87;33.79
45071;BME280;30836;48.906;9.140;2023-07-20T00:56:09;984.55;;;25.66;34.33
45071;BME280;30836;48.906;9.140;2023-07-20T00:57:09;984.52;;;25.46;34.54
45071;BME280;30836;48.906;9.140;2023-07-20T00:58:14;984.54;;;25.35;34.59
45071;BME280;30836;48.906;9.140;2023-07-20T00:59:15;984.55;;;25.30;34.60
45071;BME280;30836;48.906;9.140;2023-07-20T01:00:15;984.57;;;25.25;34.78
45071;BME280;30836;48.906;9.140;2023-07-20T01:01:16;984.57;;;25.17;34.94
45071;BME280;30836;48.906;9.140;2023-07-20T01:02:17;984.59;;;25.07;35.13
45071;BME280;30836;48.906;9.140;2023-07-20T01:03:17;984.61;;;25.01;35.13
45071;BME280;30836;48.906;9.140;2023-07-20T01:04:18;984.59;;;25.00;35.12
45071;BME280;30836;48.906;9.140;2023-07-20T01:05:19;984.61;;;24.99;35.25
45071;BME280;30836;48.906;9.140;2023-07-20T01:06:24;984.70;;;24.96;35.23
45071;BME280;30836;48.906;9.140;2023-07-20T01:07:31;984.70;;;24.97;35.21
45071;BME280;30836;48.906;9.140;2023-07-20T01:10:54;984.70;;;25.26;34.45
45071;BME280;30836;48.906;9.140;2023-07-20T01:12:09;984.74;;;25.46;34.12
45071;BME280;30836;48.906;9.140;2023-07-20T01:13:09;984.72;;;25.66;33.83
45071;BME280;30836;48.906;9.140;2023-07-20T01:14:10;984.61;;;25.83;33.57
45071;BME280;30836;48.906;9.140;2023-07-20T01:15:12;984.70;;;25.96;33.45
45071;BME280;30836;48.906;9.140;2023-07-20T01:16:12;984.61;;;26.03;33.40
45071;BME280;30836;48.906;9.140;2023-07-20T01:17:13;984.70;;;26.08;33.35
45071;BME280;30836;48.906;9.140;2023-07-20T01:18:13;984.61;;;26.11;33.25
45071;BME280;30836;48.906;9.140;2023-07-20T01:19:14;984.70;;;26.13;33.27
45071;BME280;30836;48.906;9.140;2023-07-20T01:20:15;984.61;;;26.15;33.23
45071;BME280;30836;48.906;9.140;2023-07-20T01:21:22;984.57;;;26.17;33.19
45071;BME280;30836;48.906;9.140;2023-07-20T01:30:27;984.70;;;25.86;33.80
45071;BME280;30836;48.906;9.140;2023-07-20T01:31:35;984.74;;;25.87;33.73
45071;BME280;30836;48.906;9.140;2023-07-20T01:32:37;984.72;;;25.90;33.70
45071;BME280;30836;48.906;9.140;2023-07-20T01:33:40;984.72;;;25.91;33.72
45071;BME280;30836;48.906;9.140;2023-07-20T01:34:42;984.70;;;25.93;33.72
45071;BME280;30836;48.906;9.140;2023-07-20T01:35:44;984.70;;;25.96;33.69
45071;BME280;30836;48.906;9.140;2023-07-20T01:36:49;984.70;;;25.98;33.64
45071;BME280;30836;48.906;9.140;2023-07-20T01:37:52;984.61;;;26.00;33.71
45071;BME280;30836;48.906;9.140;2023-07-20T01:38:54;984.70;;;26.00;33.75
45071;BME280;30836;48.906;9.140;2023-07-20T01:39:55;984.72;;;25.99;33.74
45071;BME280;30836;48.906;9.140;2023-07-20T01:40:55;984.70;;;25.96;33.86
45071;BME280;30836;48.906;9.140;2023-07-20T01:41:57;984.72;;;25.91;33.99
45071;BME280;30836;48.906;9.140;2023-07-20T01:42:58;984.70;;;25.84;34.17
45071;BME280;30836;48.906;9.140;2023-07-20T01:43:58;984.70;;;25.78;34.15
45071;BME280;30836;48.906;9.140;2023-07-20T01:44:59;984.61;;;25.71;34.40
45071;BME280;30836;48.906;9.140;2023-07-20T01:45:59;984.61;;;25.63;34.35
45071;BME280;30836;48.906;9.140;2023-07-20T01:47:00;984.70;;;25.59;34.47
45071;BME280;30836;48.906;9.140;2023-07-20T01:48:00;984.59;;;25.53;34.60
45071;BME280;30836;48.906;9.140;2023-07-20T01:49:00;984.59;;;25.48;34.74
45071;BME280;30836;48.906;9.140;2023-07-20T01:50:01;984.57;;;25.44;34.64
45071;BME280;30836;48.906;9.140;2023-07-20T01:51:01;984.59;;;25.45;34.65
45071;BME280;30836;48.906;9.140;2023-07-20T01:52:02;984.57;;;25.45;34.66
45071;BME280;30836;48.906;9.140;2023-07-20T01:53:02;984.55;;;25.48;34.54
45071;BME280;30836;48.906;9.140;2023-07-20T01:54:03;984.59;;;25.52;34.56
45071;BME280;30836;48.906;9.140;2023-07-20T01:55:03;984.59;;;25.55;34.51
45071;BME280;30836;48.906;9.140;2023-07-20T01:56:04;984.59;;;25.58;34.47
45071;BME280;30836;48.906;9.140;2023-07-20T01:57:05;984.59;;;25.60;34.49
45071;BME280;30836;48.906;9.140;2023-07-20T01:58:05;984.70;;;25.62;34.42
45071;BME280;30836;48.906;9.140;2023-07-20T01:59:05;984.70;;;25.60;34.62
45071;BME280;30836;48.906;9.140;2023-07-20T02:00:06;984.70;;;25.53;34.85
45071;BME280;30836;48.906;9.140;2023-07-20T02:01:07;984.72;;;25.48;34.80
45071;BME280;30836;48.906;9.140;2023-07-20T02:02:07;984.72;;;25.47;34.79
45071;BME280;30836;48.906;9.140;2023-07-20T02:03:08;984.70;;;25.49;34.67
45071;BME280;30836;48.906;9.140;2023-07-20T02:04:08;984.74;;;25.52;34.68
45071;BME280;30836;48.906;9.140;2023-07-20T02:05:09;984.72;;;25.55;34.64
45071;BME280;30836;48.906;9.140;2023-07-20T02:06:09;984.76;;;25.56;34.71
45071;BME280;30836;48.906;9.140;2023-07-20T02:07:09;984.72;;;25.55;34.75
45071;BME280;30836;48.906;9.140;2023-07-20T02:08:10;984.74;;;25.55;34.73
45071;BME280;30836;48.906;9.140;2023-07-20T02:09:10;984.74;;;25.54;34.75
45071;BME280;30836;48.906;9.140;2023-07-20T02:10:11;984.74;;;25.54;34.75
45071;BME280;30836;48.906;9.140;2023-07-20T02:11:11;984.76;;;25.54;34.79
45071;BME280;30836;48.906;9.140;2023-07-20T02:12:12;984.72;;;25.52;34.79
45071;BME280;30836;48.906;9.140;2023-07-20T02:13:12;984.72;;;25.50;34.89
45071;BME280;30836;48.906;9.140;2023-07-20T02:14:12;984.72;;;25.48;34.87
45071;BME280;30836;48.906;9.140;2023-07-20T02:15:13;984.72;;;25.48;34.86
45071;BME280;30836;48.906;9.140;2023-07-20T02:16:14;984.74;;;25.47;34.88
45071;BME280;30836;48.906;9.140;2023-07-20T02:17:15;984.76;;;25.44;35.00
45071;BME280;30836;48.906;9.140;2023-07-20T02:18:15;984.74;;;25.39;35.16
45071;BME280;30836;48.906;9.140;2023-07-20T02:19:15;984.76;;;25.35;35.20
45071;BME280;30836;48.906;9.140;2023-07-20T02:20:16;984.77;;;25.33;35.23
45071;BME280;30836;48.906;9.140;2023-07-20T02:21:16;984.76;;;25.34;35.20
45071;BME280;30836;48.906;9.140;2023-07-20T02:22:17;984.74;;;25.35;35.14
45071;BME280;30836;48.906;9.140;2023-07-20T02:23:17;984.76;;;25.37;35.13
45071;BME280;30836;48.906;9.140;2023-07-20T02:24:18;984.74;;;25.38;35.16
45071;BME280;30836;48.906;9.140;2023-07-20T02:25:18;984.76;;;25.39;35.09
45071;BME280;30836;48.906;9.140;2023-07-20T02:26:19;984.74;;;25.42;35.08
45071;BME280;30836;48.906;9.140;2023-07-20T02:27:19;984.72;;;25.44;35.03
45071;BME280;30836;48.906;9.140;2023-07-20T02:28:20;984.72;;;25.45;35.00
45071;BME280;30836;48.906;9.140;2023-07-20T02:29:20;984.70;;;25.46;34.98
45071;BME280;30836;48.906;9.140;2023-07-20T02:30:21;984.72;;;25.47;34.98
45071;BME280;30836;48.906;9.140;2023-07-20T02:31:21;984.70;;;25.48;35.02
45071;BME280;30836;48.906;9.140;2023-07-20T02:32:21;984.74;;;25.50;34.97
45071;BME280;30836;48.906;9.140;2023-07-20T02:33:22;984.74;;;25.51;35.03
45071;BME280;30836;48.906;9.140;2023-07-20T02:34:22;984.72;;;25.49;35.10
45071;BME280;30836;48.906;9.140;2023-07-20T02:35:23;984.74;;;25.45;35.24
45071;BME280;30836;48.906;9.140;2023-07-20T02:36:23;984.76;;;25.41;35.29
45071;BME280;30836;48.906;9.140;2023-07-20T02:37:24;984.74;;;25.39;35.30
45071;BME280;30836;48.906;9.140;2023-07-20T02:38:24;984.72;;;25.38;35.28
45071;BME280;30836;48.906;9.140;2023-07-20T02:39:25;984.74;;;25.37;35.34
45071;BME280;30836;48.906;9.140;2023-07-20T02:40:27;984.76;;;25.36;35.38
45071;BME280;30836;48.906;9.140;2023-07-20T02:41:27;984.76;;;25.33;35.53
45071;BME280;30836;48.906;9.140;2023-07-20T02:42:28;984.74;;;25.28;35.60
45071;BME280;30836;48.906;9.140;2023-07-20T02:43:28;984.77;;;25.20;35.79
45071;BME280;30836;48.906;9.140;2023-07-20T02:44:29;984.76;;;25.12;35.96
45071;BME280;30836;48.906;9.140;2023-07-20T02:45:29;984.76;;;25.07;35.99
45071;BME280;30836;48.906;9.140;2023-07-20T02:46:29;984.77;;;25.04;35.93
45071;BME280;30836;48.906;9.140;2023-07-20T02:47:30;984.77;;;25.04;35.96
45071;BME280;30836;48.906;9.140;2023-07-20T02:48:30;984.79;;;25.04;36.05
45071;BME280;30836;48.906;9.140;2023-07-20T02:49:31;984.76;;;25.01;36.16
45071;BME280;30836;48.906;9.140;2023-07-20T02:50:31;984.81;;;24.95;36.30
45071;BME280;30836;48.906;9.140;2023-07-20T02:51:32;984.81;;;24.89;36.40
45071;BME280;30836;48.906;9.140;2023-07-20T02:52:32;984.79;;;24.84;36.48
45071;BME280;30836;48.906;9.140;2023-07-20T02:53:33;984.81;;;24.77;36.71
45071;BME280;30836;48.906;9.140;2023-07-20T02:54:33;984.79;;;24.69;36.86
45071;BME280;30836;48.906;9.140;2023-07-20T02:55:34;984.79;;;24.65;36.78
45071;BME280;30836;48.906;9.140;2023-07-20T02:56:34;984.79;;;24.65;36.79
45071;BME280;30836;48.906;9.140;2023-07-20T02:57:35;984.83;;;24.66;36.83
45071;BME280;30836;48.906;9.140;2023-07-20T02:58:35;984.85;;;24.65;36.88
45071;BME280;30836;48.906;9.140;2023-07-20T02:59:36;984.87;;;24.64;36.95
45071;BME280;30836;48.906;9.140;2023-07-20T03:00:36;984.91;;;24.62;37.01
45071;BME280;30836;48.906;9.140;2023-07-20T03:01:36;984.91;;;24.60;37.00
45071;BME280;30836;48.906;9.140;2023-07-20T03:02:37;984.91;;;24.62;36.94
45071;BME280;30836;48.906;9.140;2023-07-20T03:03:37;984.93;;;24.61;37.13
45071;BME280;30836;48.906;9.140;2023-07-20T03:04:38;984.91;;;24.58;37.16
45071;BME280;30836;48.906;9.140;2023-07-20T03:05:40;984.93;;;24.57;37.10
45071;BME280;30836;48.906;9.140;2023-07-20T03:06:41;984.95;;;24.58;37.09
45071;BME280;30836;48.906;9.140;2023-07-20T03:07:41;984.93;;;24.60;37.02
45071;BME280;30836;48.906;9.140;2023-07-20T03:08:42;984.91;;;24.62;37.00
45071;BME280;30836;48.906;9.140;2023-07-20T03:09:43;984.91;;;24.63;37.08
45071;BME280;30836;48.906;9.140;2023-07-20T03:10:44;984.91;;;24.62;37.13
45071;BME280;30836;48.906;9.140;2023-07-20T03:11:44;984.91;;;24.61;37.15
45071;BME280;30836;48.906;9.140;2023-07-20T03:12:45;984.93;;;24.62;37.08
45071;BME280;30836;48.906;9.140;2023-07-20T03:13:45;984.95;;;24.63;37.05
45071;BME280;30836;48.906;9.140;2023-07-20T03:14:45;984.97;;;24.64;37.06
45071;BME280;30836;48.906;9.140;2023-07-20T03:15:46;984.99;;;24.63;37.20
45071;BME280;30836;48.906;9.140;2023-07-20T03:16:46;984.99;;;24.60;37.21
45071;BME280;30836;48.906;9.140;2023-07-20T03:17:47;984.97;;;24.58;37.28
45071;BME280;30836;48.906;9.140;2023-07-20T03:18:47;985.01;;;24.54;37.39
45071;BME280;30836;48.906;9.140;2023-07-20T03:19:48;985.03;;;24.51;37.43
45071;BME280;30836;48.906;9.140;2023-07-20T03:20:48;985.03;;;24.48;37.51
45071;BME280;30836;48.906;9.140;2023-07-20T03:21:48;984.99;;;24.44;37.53
45071;BME280;30836;48.906;9.140;2023-07-20T03:22:49;984.97;;;24.44;37.52
45071;BME280;30836;48.906;9.140;2023-07-20T03:23:49;984.99;;;24.44;37.52
45071;BME280;30836;48.906;9.140;2023-07-20T03:24:50;985.01;;;24.41;37.69
45071;BME280;30836;48.906;9.140;2023-07-20T03:25:50;985.01;;;24.33;37.99
45071;BME280;30836;48.906;9.140;2023-07-20T03:26:51;985.01;;;24.20;38.27
45071;BME280;30836;48.906;9.140;2023-07-20T03:27:51;985.05;;;24.07;38.45
45071;BME280;30836;48.906;9.140;2023-07-20T03:28:51;985.03;;;23.94;38.74
45071;BME280;30836;48.906;9.140;2023-07-20T03:29:52;985.03;;;23.80;39.01
45071;BME280;30836;48.906;9.140;2023-07-20T03:30:53;984.99;;;23.68;39.24
45071;BME280;30836;48.906;9.140;2023-07-20T03:31:54;984.99;;;23.59;39.36
45071;BME280;30836;48.906;9.140;2023-07-20T03:32:54;985.01;;;23.58;39.25
45071;BME280;30836;48.906;9.140;2023-07-20T03:33:55;984.99;;;23.57;39.30
45071;BME280;30836;48.906;9.140;2023-07-20T03:34:55;985.01;;;23.53;39.46
45071;BME280;30836;48.906;9.140;2023-07-20T03:35:56;985.01;;;23.46;39.71
45071;BME280;30836;48.906;9.140;2023-07-20T03:36:57;985.03;;;23.38;39.82
45071;BME280;30836;48.906;9.140;2023-07-20T03:37:57;985.03;;;23.32;39.96
45071;BME280;30836;48.906;9.140;2023-07-20T03:38:58;985.05;;;23.27;39.97
45071;BME280;30836;48.906;9.140;2023-07-20T03:39:58;985.09;;;23.24;40.07
45071;BME280;30836;48.906;9.140;2023-07-20T03:41:00;985.05;;;23.20;40.17
45071;BME280;30836;48.906;9.140;2023-07-20T03:42:00;985.07;;;23.16;40.26
45071;BME280;30836;48.906;9.140;2023-07-20T03:43:01;985.07;;;23.13;40.28
45071;BME280;30836;48.906;9.140;2023-07-20T03:44:01;985.09;;;23.11;40.32
45071;BME280;30836;48.906;9.140;2023-07-20T03:45:02;985.07;;;23.10;40.35
45071;BME280;30836;48.906;9.140;2023-07-20T03:46:02;985.07;;;23.08;40.42
45071;BME280;30836;48.906;9.140;2023-07-20T03:47:03;985.09;;;23.08;40.35
45071;BME280;30836;48.906;9.140;2023-07-20T03:48:04;985.07;;;23.11;40.28
45071;BME280;30836;48.906;9.140;2023-07-20T03:49:04;985.07;;;23.20;40.00
45071;BME280;30836;48.906;9.140;2023-07-20T03:50:05;985.09;;;23.35;39.65
45071;BME280;30836;48.906;9.140;2023-07-20T03:51:06;985.09;;;23.51;39.33
45071;BME280;30836;48.906;9.140;2023-07-20T03:52:06;985.09;;;23.65;39.15
45071;BME280;30836;48.906;9.140;2023-07-20T03:53:07;985.11;;;23.74;39.10
45071;BME280;30836;48.906;9.140;2023-07-20T03:54:07;985.09;;;23.81;38.99
45071;BME280;30836;48.906;9.140;2023-07-20T03:55:08;985.11;;;23.87;38.85
45071;BME280;30836;48.906;9.140;2023-07-20T03:56:08;985.09;;;23.95;38.69
45071;BME280;30836;48.906;9.140;2023-07-20T03:57:09;985.09;;;24.02;38.56
45071;BME280;30836;48.906;9.140;2023-07-20T03:58:09;985.09;;;24.09;38.44
45071;BME280;30836;48.906;9.140;2023-07-20T03:59:10;985.05;;;24.14;38.48
45071;BME280;30836;48.906;9.140;2023-07-20T04:00:10;985.09;;;24.19;38.38
45071;BME280;30836;48.906;9.140;2023-07-20T04:01:11;985.07;;;24.24;38.19
45071;BME280;30836;48.906;9.140;2023-07-20T04:02:12;985.11;;;24.31;38.10
45071;BME280;30836;48.906;9.140;2023-07-20T04:03:13;985.11;;;24.36;37.97
45071;BME280;30836;48.906;9.140;2023-07-20T04:04:15;985.15;;;24.42;37.90
45071;BME280;30836;48.906;9.140;2023-07-20T04:05:16;985.13;;;24.45;37.96
45071;BME280;30836;48.906;9.140;2023-07-20T04:06:16;985.15;;;24.47;37.90
45071;BME280;30836;48.906;9.140;2023-07-20T04:07:17;985.15;;;24.49;37.83
45071;BME280;30836;48.906;9.140;2023-07-20T04:08:17;985.19;;;24.52;37.80
45071;BME280;30836;48.906;9.140;2023-07-20T04:09:18;985.17;;;24.54;37.67
45071;BME280;30836;48.906;9.140;2023-07-20T04:10:18;985.19;;;24.56;37.80
45071;BME280;30836;48.906;9.140;2023-07-20T04:11:19;985.21;;;24.56;37.74
45071;BME280;30836;48.906;9.140;2023-07-20T04:12:19;985.19;;;24.57;37.69
45071;BME280;30836;48.906;9.140;2023-07-20T04:13:20;985.19;;;24.57;37.75
45071;BME280;30836;48.906;9.140;2023-07-20T04:14:20;985.21;;;24.57;37.77
45071;BME280;30836;48.906;9.140;2023-07-20T04:15:20;985.19;;;24.53;37.90
45071;BME280;30836;48.906;9.140;2023-07-20T04:16:21;985.19;;;24.45;38.12
45071;BME280;30836;48.906;9.140;2023-07-20T04:17:22;985.19;;;24.36;38.27
45071;BME280;30836;48.906;9.140;2023-07-20T04:18:22;985.21;;;24.32;38.28
45071;BME280;30836;48.906;9.140;2023-07-20T04:19:23;985.19;;;24.32;38.27
45071;BME280;30836;48.906;9.140;2023-07-20T04:20:23;985.19;;;24.29;38.37
45071;BME280;30836;48.906;9.140;2023-07-20T04:21:26;985.25;;;24.22;38.52
45071;BME280;30836;48.906;9.140;2023-07-20T04:22:27;985.25;;;24.13;38.72
45071;BME280;30836;48.906;9.140;2023-07-20T04:23:28;985.25;;;24.04;38.96
45071;BME280;30836;48.906;9.140;2023-07-20T04:24:28;985.27;;;23.95;39.11
45071;BME280;30836;48.906;9.140;2023-07-20T04:25:29;985.25;;;23.87;39.23
45071;BME280;30836;48.906;9.140;2023-07-20T04:26:30;985.25;;;23.80;39.41
45071;BME280;30836;48.906;9.140;2023-07-20T04:27:30;985.25;;;23.74;39.56
45071;BME280;30836;48.906;9.140;2023-07-20T04:28:30;985.27;;;23.69;39.61
45071;BME280;30836;48.906;9.140;2023-07-20T04:29:31;985.27;;;23.67;39.63
45071;BME280;30836;48.906;9.140;2023-07-20T04:30:31;985.29;;;23.65;39.73
45071;BME280;30836;48.906;9.140;2023-07-20T04:31:32;985.29;;;23.64;39.86
45071;BME280;30836;48.906;9.140;2023-07-20T04:32:32;985.29;;;23.63;39.83
45071;BME280;30836;48.906;9.140;2023-07-20T04:33:32;985.27;;;23.65;39.71
45071;BME280;30836;48.906;9.140;2023-07-20T04:34:33;985.29;;;23.68;39.68
45071;BME280;30836;48.906;9.140;2023-07-20T04:36:44;985.25;;;23.72;39.66
45071;BME280;30836;48.906;9.140;2023-07-20T04:37:45;985.29;;;23.76;39.63
45071;BME280;30836;48.906;9.140;2023-07-20T04:38:45;985.27;;;23.80;39.63
45071;BME280;30836;48.906;9.140;2023-07-20T04:39:46;985.27;;;23.83;39.61
45071;BME280;30836;48.906;9.140;2023-07-20T04:40:47;985.27;;;23.84;39.64
45071;BME280;30836;48.906;9.140;2023-07-20T04:41:49;985.27;;;23.85;39.66
45071;BME280;30836;48.906;9.140;2023-07-20T04:42:49;985.29;;;23.85;39.54
45071;BME280;30836;48.906;9.140;2023-07-20T04:43:50;985.27;;;23.85;39.60
45071;BME280;30836;48.906;9.140;2023-07-20T04:44:50;985.27;;;23.84;39.63
45071;BME280;30836;48.906;9.140;2023-07-20T04:45:50;985.29;;;23.80;39.77
45071;BME280;30836;48.906;9.140;2023-07-20T04:46:51;985.31;;;23.77;39.83
45071;BME280;30836;48.906;9.140;2023-07-20T04:47:51;985.29;;;23.74;39.83
45071;BME280;30836;48.906;9.140;2023-07-20T04:48:52;985.27;;;23.69;39.94
45071;BME280;30836;48.906;9.140;2023-07-20T04:49:52;985.29;;;23.67;39.92
45071;BME280;30836;48.906;9.140;2023-07-20T04:50:53;985.29;;;23.65;39.96
45071;BME280;30836;48.906;9.140;2023-07-20T04:51:53;985.31;;;23.61;40.02
45071;BME280;30836;48.906;9.140;2023-07-20T04:52:54;985.29;;;23.59;40.02
45071;BME280;30836;48.906;9.140;2023-07-20T04:53:54;985.29;;;23.61;39.99
45071;BME280;30836;48.906;9.140;2023-07-20T04:54:54;985.31;;;23.63;40.09
45071;BME280;30836;48.906;9.140;2023-07-20T04:55:55;985.31;;;23.62;40.12
45071;BME280;30836;48.906;9.140;2023-07-20T04:56:55;985.27;;;23.65;40.00
45071;BME280;30836;48.906;9.140;2023-07-20T04:57:56;985.29;;;23.68;39.99
45071;BME280;30836;48.906;9.140;2023-07-20T04:58:56;985.29;;;23.72;39.86
45071;BME280;30836;48.906;9.140;2023-07-20T04:59:57;985.29;;;23.79;39.77
45071;BME280;30836;48.906;9.140;2023-07-20T05:00:57;985.31;;;23.86;39.77
45071;BME280;30836;48.906;9.140;2023-07-20T05:01:57;985.29;;;23.91;39.66
45071;BME280;30836;48.906;9.140;2023-07-20T05:02:58;985.32;;;23.94;39.74
45071;BME280;30836;48.906;9.140;2023-07-20T05:03:58;985.31;;;23.95;39.70
45071;BME280;30836;48.906;9.140;2023-07-20T05:04:59;985.34;;;23.94;39.70
45071;BME280;30836;48.906;9.140;2023-07-20T05:05:59;985.32;;;23.93;39.67
45071;BME280;30836;48.906;9.140;2023-07-20T05:07:00;985.34;;;23.91;39.84
45071;BME280;30836;48.906;9.140;2023-07-20T05:08:00;985.36;;;23.91;39.78
45071;BME280;30836;48.906;9.140;2023-07-20T05:09:01;985.38;;;23.91;39.77
45071;BME280;30836;48.906;9.140;2023-07-20T05:10:01;985.34;;;23.87;40.03
45071;BME280;30836;48.906;9.140;2023-07-20T05:11:01;985.36;;;23.81;40.08
45071;BME280;30836;48.906;9.140;2023-07-20T05:12:02;985.34;;;23.79;40.15
45071;BME280;30836;48.906;9.140;2023-07-20T05:13:03;985.36;;;23.76;40.25
45071;BME280;30836;48.906;9.140;2023-07-20T05:14:03;985.36;;;23.76;40.15
45071;BME280;30836;48.906;9.140;2023-07-20T05:15:04;985.34;;;23.77;40.14
45071;BME280;30836;48.906;9.140;2023-07-20T05:16:05;985.34;;;23.80;40.08
45071;BME280;30836;48.906;9.140;2023-07-20T05:17:05;985.34;;;23.82;40.12
45071;BME280;30836;48.906;9.140;2023-07-20T05:18:06;985.34;;;23.80;40.31
45071;BME280;30836;48.906;9.140;2023-07-20T05:19:06;985.32;;;23.76;40.42
45071;BME280;30836;48.906;9.140;2023-07-20T05:20:07;985.34;;;23.71;40.67
45071;BME280;30836;48.906;9.140;2023-07-20T05:21:07;985.31;;;23.67;40.64
45071;BME280;30836;48.906;9.140;2023-07-20T05:22:08;985.31;;;23.70;40.55
45071;BME280;30836;48.906;9.140;2023-07-20T05:23:09;985.32;;;23.74;40.51
45071;BME280;30836;48.906;9.140;2023-07-20T05:24:09;985.32;;;23.78;40.51
45071;BME280;30836;48.906;9.140;2023-07-20T05:25:10;985.31;;;23.81;40.56
45071;BME280;30836;48.906;9.140;2023-07-20T05:26:11;985.32;;;23.82;40.62
45071;BME280;30836;48.906;9.140;2023-07-20T05:27:11;985.34;;;23.82;40.57
45071;BME280;30836;48.906;9.140;2023-07-20T05:28:12;985.32;;;23.80;40.71
45071;BME280;30836;48.906;9.140;2023-07-20T05:29:12;985.32;;;23.79;40.67
45071;BME280;30836;48.906;9.140;2023-07-20T05:30:13;985.32;;;23.81;40.77
45071;BME280;30836;48.906;9.140;2023-07-20T05:31:13;985.29;;;23.84;40.64
45071;BME280;30836;48.906;9.140;2023-07-20T05:32:14;985.32;;;23.90;40.51
45071;BME280;30836;48.906;9.140;2023-07-20T05:33:14;985.31;;;23.96;40.47
45071;BME280;30836;48.906;9.140;2023-07-20T05:34:15;985.32;;;24.03;40.36
45071;BME280;30836;48.906;9.140;2023-07-20T05:35:15;985.31;;;24.10;40.30
45071;BME280;30836;48.906;9.140;2023-07-20T05:36:16;985.29;;;24.18;40.16
45071;BME280;30836;48.906;9.140;2023-07-20T05:37:16;985.29;;;24.25;39.98
45071;BME280;30836;48.906;9.140;2023-07-20T05:38:16;985.31;;;24.31;39.91
45071;BME280;30836;48.906;9.140;2023-07-20T05:39:17;985.31;;;24.35;39.88
45071;BME280;30836;48.906;9.140;2023-07-20T05:40:17;985.31;;;24.36;39.85
45071;BME280;30836;48.906;9.140;2023-07-20T05:41:18;985.29;;;24.34;39.77